createdAt,value
2017-06-14T00:01:58.559Z,17.00
2017-06-14T00:04:26.096Z,17.00
2017-06-14T00:06:53.626Z,17.00
2017-06-14T00:09:21.250Z,17.00
2017-06-14T00:11:48.792Z,17.00
2017-06-14T00:14:16.333Z,17.00
2017-06-14T00:16:43.910Z,17.00
2017-06-14T00:19:11.444Z,17.00
2017-06-14T00:21:39.091Z,17.00
2017-06-14T00:24:06.684Z,16.90
2017-06-14T00:26:34.294Z,16.90
2017-06-14T00:29:01.867Z,16.80
2017-06-14T00:31:29.478Z,16.70
2017-06-14T00:33:57.012Z,16.70
2017-06-14T00:36:24.714Z,16.60
2017-06-14T00:38:52.316Z,16.50
2017-06-14T00:41:19.844Z,16.50
2017-06-14T00:43:48.161Z,16.30
2017-06-14T00:46:15.747Z,16.30
2017-06-14T00:48:43.292Z,16.30
2017-06-14T00:51:10.826Z,16.30
2017-06-14T00:53:38.418Z,16.20
2017-06-14T00:56:05.957Z,16.20
2017-06-14T00:58:33.497Z,16.20
2017-06-14T01:01:01.103Z,16.20
2017-06-14T01:03:28.626Z,16.20
2017-06-14T01:05:56.157Z,16.10
2017-06-14T01:08:23.750Z,16.10
2017-06-14T01:10:51.309Z,16.10
2017-06-14T01:13:18.821Z,16.10
2017-06-14T01:15:46.407Z,16.10
2017-06-14T01:18:14.721Z,16.20
2017-06-14T01:20:42.265Z,16.20
2017-06-14T01:23:09.853Z,16.30
2017-06-14T01:25:37.397Z,16.30
2017-06-14T01:28:04.941Z,16.30
2017-06-14T01:30:32.525Z,16.20
2017-06-14T01:33:00.073Z,16.20
2017-06-14T01:35:27.612Z,16.10
2017-06-14T01:37:55.194Z,16.10
2017-06-14T01:40:22.740Z,16.00
2017-06-14T01:42:51.035Z,15.90
2017-06-14T01:45:18.629Z,15.80
2017-06-14T01:47:46.173Z,15.80
2017-06-14T01:50:13.708Z,15.80
2017-06-14T01:52:41.314Z,15.70
2017-06-14T01:55:08.838Z,15.70
2017-06-14T01:57:36.357Z,15.60
2017-06-14T02:00:03.944Z,15.60
2017-06-14T02:02:31.499Z,15.50
2017-06-14T02:04:59.044Z,15.50
2017-06-14T02:07:26.623Z,15.40
2017-06-14T02:09:54.196Z,15.40
2017-06-14T02:12:21.720Z,15.40
2017-06-14T02:14:49.664Z,15.40
2017-06-14T02:17:17.209Z,15.40
2017-06-14T02:19:44.752Z,15.40
2017-06-14T02:22:12.316Z,15.40
2017-06-14T02:24:39.856Z,15.30
2017-06-14T02:27:07.389Z,15.30
2017-06-14T02:29:34.964Z,15.20
2017-06-14T02:32:02.505Z,15.20
2017-06-14T02:34:30.025Z,15.20
2017-06-14T02:36:57.627Z,15.20
2017-06-14T02:39:25.177Z,15.30
2017-06-14T02:41:52.707Z,15.20
2017-06-14T02:44:20.302Z,15.20
2017-06-14T02:46:47.840Z,15.20
2017-06-14T02:49:15.380Z,15.20
2017-06-14T02:51:42.979Z,15.20
2017-06-14T02:54:10.524Z,15.10
2017-06-14T02:56:38.061Z,15.10
2017-06-14T02:59:05.639Z,15.10
2017-06-14T03:01:33.212Z,15.10
2017-06-14T03:04:00.742Z,15.10
2017-06-14T03:06:40.031Z,15.10
2017-06-14T03:09:08.341Z,15.00
2017-06-14T03:11:35.908Z,15.00
2017-06-14T03:14:03.491Z,15.00
2017-06-14T03:16:31.031Z,15.00
2017-06-14T03:18:58.570Z,15.00
2017-06-14T03:21:26.156Z,15.00
2017-06-14T03:23:53.681Z,15.00
2017-06-14T03:26:21.981Z,15.00
2017-06-14T03:28:49.576Z,15.00
2017-06-14T03:31:17.105Z,14.90
2017-06-14T03:33:44.630Z,14.90
2017-06-14T03:36:12.262Z,14.90
2017-06-14T03:38:39.805Z,14.90
2017-06-14T03:41:07.357Z,14.90
2017-06-14T03:43:34.943Z,14.90
2017-06-14T03:46:02.470Z,14.80
2017-06-14T03:48:30.015Z,14.80
2017-06-14T03:50:57.601Z,14.80
2017-06-14T03:53:25.144Z,14.80
2017-06-14T03:55:52.668Z,14.90
2017-06-14T03:58:20.251Z,14.90
2017-06-14T04:00:47.804Z,15.00
2017-06-14T04:03:16.121Z,15.00
2017-06-14T04:05:44.159Z,15.10
2017-06-14T04:08:12.465Z,15.10
2017-06-14T04:10:40.010Z,15.10
2017-06-14T04:13:07.773Z,15.20
2017-06-14T04:15:35.311Z,15.20
2017-06-14T04:18:02.847Z,15.30
2017-06-14T04:20:30.423Z,15.30
2017-06-14T04:22:57.959Z,15.40
2017-06-14T04:25:25.495Z,15.40
2017-06-14T04:27:53.073Z,15.50
2017-06-14T04:30:20.901Z,15.50
2017-06-14T04:32:48.483Z,15.60
2017-06-14T04:35:16.064Z,15.60
2017-06-14T04:37:43.603Z,15.60
2017-06-14T04:40:11.146Z,15.60
2017-06-14T04:42:40.625Z,15.60
2017-06-14T04:45:08.935Z,15.70
2017-06-14T04:47:36.480Z,15.70
2017-06-14T04:50:04.092Z,15.80
2017-06-14T04:52:31.647Z,15.80
2017-06-14T04:54:59.202Z,15.90
2017-06-14T04:57:26.785Z,16.00
2017-06-14T04:59:54.482Z,16.10
2017-06-14T05:02:22.073Z,16.10
2017-06-14T05:04:49.648Z,16.20
2017-06-14T05:07:17.192Z,16.20
2017-06-14T05:09:44.744Z,16.30
2017-06-14T05:12:12.368Z,16.40
2017-06-14T05:14:39.905Z,16.50
2017-06-14T05:17:07.436Z,16.60
2017-06-14T05:19:35.013Z,16.70
2017-06-14T05:22:02.661Z,16.70
2017-06-14T05:24:30.251Z,16.80
2017-06-14T05:26:57.844Z,16.90
2017-06-14T05:29:26.727Z,17.00
2017-06-14T05:31:55.065Z,17.00
2017-06-14T05:34:22.675Z,17.00
2017-06-14T05:36:50.263Z,17.10
2017-06-14T05:39:17.803Z,17.20
2017-06-14T05:41:45.924Z,17.20
2017-06-14T05:44:13.480Z,17.20
2017-06-14T05:46:41.110Z,17.30
2017-06-14T05:49:08.721Z,17.40
2017-06-14T05:51:36.389Z,17.40
2017-06-14T05:54:03.966Z,17.40
2017-06-14T05:56:31.564Z,17.50
2017-06-14T05:58:59.125Z,17.50
2017-06-14T06:01:26.653Z,17.60
2017-06-14T06:03:54.443Z,17.70
2017-06-14T06:06:22.036Z,17.70
2017-06-14T06:08:49.579Z,17.80
2017-06-14T06:11:17.185Z,17.90
2017-06-14T06:13:44.725Z,17.90
2017-06-14T06:16:12.285Z,18.00
2017-06-14T06:18:39.865Z,18.10
2017-06-14T06:21:07.417Z,18.10
2017-06-14T06:23:34.950Z,18.20
2017-06-14T06:26:02.524Z,18.20
2017-06-14T06:28:30.060Z,18.30
2017-06-14T06:30:57.597Z,18.40
2017-06-14T06:33:25.168Z,18.40
2017-06-14T06:35:52.713Z,18.40
2017-06-14T06:38:20.237Z,18.50
2017-06-14T06:40:47.824Z,18.60
2017-06-14T06:43:16.124Z,18.80
2017-06-14T06:45:43.661Z,18.70
2017-06-14T06:48:12.017Z,18.80
2017-06-14T06:50:39.557Z,18.80
2017-06-14T06:53:07.112Z,18.80
2017-06-14T06:55:34.743Z,18.80
2017-06-14T06:58:02.265Z,18.80
2017-06-14T07:00:29.793Z,18.80
2017-06-14T07:02:57.369Z,18.90
2017-06-14T07:05:24.910Z,19.10
2017-06-14T07:07:52.445Z,19.20
2017-06-14T07:10:20.017Z,19.20
2017-06-14T07:12:47.555Z,19.30
2017-06-14T07:15:15.869Z,19.70
2017-06-14T07:17:43.448Z,19.70
2017-06-14T07:20:11.003Z,19.80
2017-06-14T07:22:38.530Z,20.00
2017-06-14T07:25:06.117Z,20.10
2017-06-14T07:27:33.673Z,20.20
2017-06-14T07:30:01.257Z,20.30
2017-06-14T07:32:28.842Z,20.30
2017-06-14T07:34:57.165Z,20.10
2017-06-14T07:37:24.698Z,20.10
2017-06-14T07:39:52.273Z,20.10
2017-06-14T07:42:19.825Z,20.20
2017-06-14T07:44:47.363Z,20.30
2017-06-14T07:47:15.713Z,20.60
2017-06-14T07:49:43.239Z,20.60
2017-06-14T07:52:10.810Z,20.70
2017-06-14T07:54:38.404Z,20.90
2017-06-14T07:57:06.766Z,21.00
2017-06-14T07:59:34.325Z,21.10
2017-06-14T08:02:01.938Z,21.00
2017-06-14T08:04:29.534Z,20.90
2017-06-14T08:06:57.100Z,20.80
2017-06-14T08:09:24.676Z,20.70
2017-06-14T08:11:52.215Z,20.70
2017-06-14T08:14:19.819Z,20.80
2017-06-14T08:16:47.407Z,20.90
2017-06-14T08:19:14.953Z,21.00
2017-06-14T08:21:42.477Z,21.00
2017-06-14T08:24:10.052Z,20.90
2017-06-14T08:26:37.577Z,20.80
2017-06-14T08:29:05.106Z,20.70
2017-06-14T08:31:32.679Z,20.80
2017-06-14T08:34:00.227Z,21.00
2017-06-14T08:36:28.525Z,21.30
2017-06-14T08:38:56.106Z,21.30
2017-06-14T08:41:23.640Z,21.30
2017-06-14T08:43:51.213Z,21.40
2017-06-14T08:46:18.797Z,21.30
2017-06-14T08:48:46.321Z,21.20
2017-06-14T08:51:13.848Z,21.10
2017-06-14T08:53:41.433Z,21.00
2017-06-14T08:56:08.963Z,21.10
2017-06-14T08:58:36.486Z,21.20
2017-06-14T09:01:04.057Z,21.40
2017-06-14T09:03:31.633Z,21.60
2017-06-14T09:05:59.202Z,21.90
2017-06-14T09:08:26.785Z,22.00
2017-06-14T09:10:54.340Z,22.00
2017-06-14T09:13:21.901Z,22.00
2017-06-14T09:15:50.253Z,21.90
2017-06-14T09:18:17.793Z,21.90
2017-06-14T09:20:45.340Z,22.00
2017-06-14T09:23:12.905Z,22.20
2017-06-14T09:25:40.465Z,22.30
2017-06-14T09:28:08.003Z,22.30
2017-06-14T09:30:35.578Z,22.20
2017-06-14T09:33:03.112Z,22.20
2017-06-14T09:35:31.404Z,22.50
2017-06-14T09:37:58.989Z,22.40
2017-06-14T09:40:26.647Z,22.60
2017-06-14T09:42:54.182Z,22.60
2017-06-14T09:45:21.768Z,22.50
2017-06-14T09:47:49.302Z,22.50
2017-06-14T09:50:16.862Z,22.50
2017-06-14T09:52:44.435Z,22.70
2017-06-14T09:55:11.994Z,22.80
2017-06-14T09:57:39.655Z,22.70
2017-06-14T10:00:07.294Z,22.70
2017-06-14T10:02:35.658Z,22.80
2017-06-14T10:05:03.973Z,22.80
2017-06-14T10:07:31.547Z,22.80
2017-06-14T10:09:59.108Z,22.80
2017-06-14T10:12:26.650Z,22.90
2017-06-14T10:14:54.220Z,23.00
2017-06-14T10:17:21.749Z,23.20
2017-06-14T10:19:50.071Z,23.30
2017-06-14T10:22:17.695Z,23.30
2017-06-14T10:24:45.982Z,23.20
2017-06-14T10:27:13.521Z,23.20
2017-06-14T10:29:41.895Z,23.30
2017-06-14T10:32:09.437Z,23.30
2017-06-14T10:34:36.969Z,23.40
2017-06-14T10:37:04.549Z,23.40
2017-06-14T10:39:32.082Z,23.60
2017-06-14T10:42:18.213Z,23.60
2017-06-14T10:44:53.405Z,23.70
2017-06-14T10:47:21.055Z,23.80
2017-06-14T10:49:50.201Z,23.90
2017-06-14T10:52:29.160Z,23.80
2017-06-14T10:57:51.797Z,23.70
2017-06-14T11:00:20.045Z,23.70
2017-06-14T11:02:49.537Z,23.70
2017-06-14T11:05:20.138Z,23.80
2017-06-14T11:08:14.559Z,23.80
2017-06-14T11:10:45.701Z,24.00
2017-06-14T11:13:13.228Z,24.00
2017-06-14T11:15:40.777Z,24.10
2017-06-14T11:18:28.343Z,24.20
2017-06-14T11:20:57.140Z,24.30
2017-06-14T11:26:01.526Z,24.50
2017-06-14T11:28:29.076Z,24.60
2017-06-14T11:30:57.425Z,24.90
2017-06-14T11:33:28.744Z,25.20
2017-06-14T11:35:56.263Z,25.60
2017-06-14T11:41:32.549Z,26.90
2017-06-14T11:44:00.151Z,27.70
2017-06-14T11:46:38.532Z,28.80
2017-06-14T11:49:20.338Z,28.70
2017-06-14T11:51:51.618Z,29.30
2017-06-14T11:57:08.062Z,30.30
2017-06-14T12:05:43.420Z,32.00
2017-06-14T12:08:20.541Z,33.20
2017-06-14T12:31:22.612Z,38.00
2017-06-14T12:34:25.724Z,38.10
2017-06-14T12:39:51.473Z,37.70
2017-06-14T12:45:16.840Z,38.00
2017-06-14T12:47:50.669Z,38.10
2017-06-14T12:50:18.447Z,38.30
2017-06-14T12:53:08.839Z,38.30
2017-06-14T12:55:41.530Z,38.40
2017-06-14T12:58:16.405Z,37.90
2017-06-14T13:03:43.915Z,37.00
2017-06-14T13:06:24.015Z,37.30
2017-06-14T13:14:38.492Z,38.40
2017-06-14T13:25:59.183Z,40.20
2017-06-14T13:31:33.026Z,40.70
2017-06-14T13:34:00.587Z,41.30
2017-06-14T13:39:26.492Z,41.00
2017-06-14T13:44:39.808Z,41.10
2017-06-14T13:50:01.821Z,40.60
2017-06-14T13:52:40.227Z,40.50
2017-06-14T13:55:07.810Z,40.30
2017-06-14T13:57:35.385Z,40.40
2017-06-14T14:00:02.935Z,40.50
2017-06-14T14:02:30.473Z,40.60
2017-06-14T14:04:58.056Z,40.80
2017-06-14T14:07:25.585Z,40.80
2017-06-14T14:09:53.249Z,40.70
2017-06-14T14:12:20.950Z,40.70
2017-06-14T14:14:49.299Z,40.70
2017-06-14T14:17:16.909Z,40.40
2017-06-14T14:19:44.508Z,40.20
2017-06-14T14:22:12.043Z,40.40
2017-06-14T14:24:39.585Z,40.70
2017-06-14T14:27:07.168Z,40.70
2017-06-14T14:29:34.693Z,40.50
2017-06-14T14:32:02.218Z,40.40
2017-06-14T14:34:29.804Z,40.30
2017-06-14T14:36:57.358Z,40.60
2017-06-14T14:39:25.758Z,40.80
2017-06-14T14:41:53.359Z,40.90
2017-06-14T14:44:20.881Z,40.80
2017-06-14T14:46:48.444Z,40.60
2017-06-14T14:49:24.284Z,40.30
2017-06-14T14:51:51.834Z,40.20
2017-06-14T14:54:19.398Z,39.80
2017-06-14T14:56:46.990Z,39.30
2017-06-14T14:59:14.533Z,39.20
2017-06-14T15:01:42.075Z,38.70
2017-06-14T15:04:09.689Z,37.80
2017-06-14T15:06:37.221Z,37.00
2017-06-14T15:09:04.780Z,36.70
2017-06-14T15:11:32.389Z,36.80
2017-06-14T15:13:59.931Z,37.20
2017-06-14T15:16:28.257Z,37.60
2017-06-14T15:18:55.887Z,37.50
2017-06-14T15:21:25.450Z,37.00
2017-06-14T15:24:03.298Z,35.90
2017-06-14T15:26:42.874Z,36.10
2017-06-14T15:29:10.524Z,36.40
2017-06-14T15:31:38.724Z,36.80
2017-06-14T15:34:06.290Z,37.30
2017-06-14T15:36:44.781Z,37.30
2017-06-14T15:44:55.544Z,34.00
2017-06-14T15:47:23.878Z,33.50
2017-06-14T15:49:57.557Z,33.40
2017-06-14T15:55:16.541Z,34.30
2017-06-14T15:57:47.749Z,34.30
2017-06-14T16:00:17.203Z,33.70
2017-06-14T16:02:48.858Z,33.60
2017-06-14T16:05:49.030Z,33.30
2017-06-14T16:11:26.437Z,33.00
2017-06-14T16:13:53.967Z,32.90
2017-06-14T16:16:21.521Z,32.80
2017-06-14T16:18:50.724Z,33.10
2017-06-14T16:21:18.296Z,33.60
2017-06-14T16:23:45.846Z,34.20
2017-06-14T16:26:13.466Z,34.60
2017-06-14T16:28:41.014Z,35.00
2017-06-14T16:31:09.345Z,35.60
2017-06-14T16:33:36.939Z,35.50
2017-06-14T16:36:04.513Z,35.70
2017-06-14T16:38:32.068Z,35.80
2017-06-14T16:40:59.694Z,36.00
2017-06-14T16:43:27.283Z,36.00
2017-06-14T16:45:54.873Z,36.10
2017-06-14T16:48:22.468Z,36.30
2017-06-14T16:50:50.064Z,36.40
2017-06-14T16:53:17.607Z,36.50
2017-06-14T16:55:45.195Z,36.40
2017-06-14T16:58:12.765Z,36.40
2017-06-14T17:00:40.324Z,36.30
2017-06-14T17:03:08.677Z,36.10
2017-06-14T17:05:36.217Z,36.10
2017-06-14T17:08:03.770Z,35.80
2017-06-14T17:10:31.422Z,35.50
2017-06-14T17:12:58.963Z,35.20
2017-06-14T17:15:26.527Z,35.10
2017-06-14T17:17:54.116Z,35.20
2017-06-14T17:20:21.665Z,35.20
2017-06-14T17:22:49.282Z,35.10
2017-06-14T17:25:16.880Z,35.00
2017-06-14T17:27:44.440Z,34.80
2017-06-14T17:30:12.002Z,34.70
2017-06-14T17:32:39.659Z,34.70
2017-06-14T17:35:07.251Z,34.70
2017-06-14T17:37:34.836Z,34.60
2017-06-14T17:40:02.437Z,34.60
2017-06-14T17:42:29.970Z,34.70
2017-06-14T17:44:57.528Z,34.60
2017-06-14T17:47:38.411Z,34.50
2017-06-14T17:50:06.114Z,34.30
2017-06-14T17:52:33.711Z,34.10
2017-06-14T17:55:01.301Z,34.10
2017-06-14T17:57:29.606Z,33.90
2017-06-14T18:00:00.160Z,33.90
2017-06-14T18:05:09.509Z,33.30
2017-06-14T18:07:37.070Z,32.90
2017-06-14T18:10:04.626Z,32.50
2017-06-14T18:12:32.218Z,32.20
2017-06-14T18:15:01.674Z,32.10
2017-06-14T18:17:32.748Z,32.10
2017-06-14T18:20:00.385Z,31.90
2017-06-14T18:22:27.941Z,31.80
2017-06-14T18:24:55.527Z,31.60
2017-06-14T18:27:23.110Z,31.30
2017-06-14T18:29:50.691Z,31.00
2017-06-14T18:32:18.319Z,30.80
2017-06-14T18:34:45.877Z,30.70
2017-06-14T18:37:14.235Z,30.60
2017-06-14T18:39:41.860Z,30.40
2017-06-14T18:42:09.472Z,30.20
2017-06-14T18:44:37.037Z,29.90
2017-06-14T18:47:04.655Z,29.70
2017-06-14T18:49:33.081Z,29.00
2017-06-14T18:52:00.654Z,29.00
2017-06-14T18:54:28.285Z,28.70
2017-06-14T18:56:55.866Z,28.40
2017-06-14T18:59:23.462Z,28.10
2017-06-14T19:01:51.096Z,27.80
2017-06-14T19:04:18.666Z,27.50
2017-06-14T19:06:46.236Z,27.30
2017-06-14T19:09:13.847Z,27.10
2017-06-14T19:11:41.458Z,26.90
2017-06-14T19:14:09.082Z,26.70
2017-06-14T19:16:40.456Z,26.40
2017-06-14T19:25:06.441Z,25.80
2017-06-14T19:27:35.217Z,25.50
2017-06-14T19:33:01.189Z,25.00
2017-06-14T19:38:28.918Z,24.50
2017-06-14T19:40:56.526Z,24.40
2017-06-14T19:43:24.118Z,24.30
2017-06-14T19:45:51.745Z,24.10
2017-06-14T19:48:19.315Z,24.00
2017-06-14T19:50:47.652Z,23.60
2017-06-14T19:53:15.290Z,23.60
2017-06-14T19:55:42.884Z,23.40
2017-06-14T19:58:10.533Z,23.20
2017-06-14T20:00:38.135Z,23.10
2017-06-14T20:03:05.721Z,22.90
2017-06-14T20:05:34.122Z,22.70
2017-06-14T20:08:01.997Z,22.60
2017-06-14T20:10:29.598Z,22.60
2017-06-14T20:12:57.199Z,22.50
2017-06-14T20:15:24.812Z,22.40
2017-06-14T20:17:52.434Z,22.30
2017-06-14T20:20:19.998Z,22.10
2017-06-14T20:22:47.732Z,22.00
2017-06-14T20:25:16.167Z,21.90
2017-06-14T20:27:43.763Z,21.80
2017-06-14T20:30:11.371Z,21.80
2017-06-14T20:32:38.962Z,21.70
2017-06-14T20:35:06.532Z,21.60
2017-06-14T20:37:34.173Z,21.50
2017-06-14T20:40:01.719Z,21.40
2017-06-14T20:42:29.298Z,21.40
2017-06-14T20:44:56.955Z,21.30
2017-06-14T20:47:24.547Z,21.20
2017-06-14T20:49:52.210Z,21.10
2017-06-14T20:52:19.801Z,21.10
2017-06-14T20:54:47.396Z,21.00
2017-06-14T20:57:14.959Z,20.90
2017-06-14T20:59:42.552Z,20.90
2017-06-14T21:02:10.182Z,20.80
2017-06-14T21:04:37.781Z,20.80
2017-06-14T21:07:05.379Z,20.70
2017-06-14T21:09:32.951Z,20.70
2017-06-14T21:12:00.491Z,20.60
2017-06-14T21:14:28.088Z,20.50
2017-06-14T21:16:55.647Z,20.50
2017-06-14T21:19:23.202Z,20.40
2017-06-14T21:21:50.785Z,20.50
2017-06-14T21:24:18.330Z,20.40
2017-06-14T21:26:45.863Z,20.30
2017-06-14T21:29:13.552Z,20.30
2017-06-14T21:31:41.135Z,20.20
2017-06-14T21:34:08.673Z,20.10
2017-06-14T21:36:36.246Z,20.10
2017-06-14T21:39:03.808Z,20.00
2017-06-14T21:41:31.366Z,20.00
2017-06-14T21:43:58.978Z,19.90
2017-06-14T21:46:26.515Z,19.80
2017-06-14T21:48:54.068Z,19.80
2017-06-14T21:51:21.718Z,19.70
2017-06-14T21:53:49.283Z,19.60
2017-06-14T21:56:16.834Z,19.60
2017-06-14T21:58:44.447Z,19.50
2017-06-14T22:01:12.042Z,19.40
2017-06-14T22:03:39.586Z,19.40
2017-06-14T22:06:07.524Z,19.30
2017-06-14T22:08:35.089Z,19.20
2017-06-14T22:11:02.654Z,19.20
2017-06-14T22:13:30.240Z,19.20
2017-06-14T22:15:57.793Z,19.10
2017-06-14T22:18:25.369Z,19.10
2017-06-14T22:20:52.969Z,19.00
2017-06-14T22:23:20.544Z,19.00
2017-06-14T22:25:48.900Z,18.90
2017-06-14T22:28:16.759Z,18.90
2017-06-14T22:30:44.300Z,18.90
2017-06-14T22:33:11.867Z,18.80
2017-06-14T22:35:39.717Z,18.70
2017-06-14T22:38:07.328Z,18.60
2017-06-14T22:40:34.877Z,18.60
2017-06-14T22:43:02.461Z,18.60
2017-06-14T22:45:30.140Z,18.50
2017-06-14T22:47:57.709Z,18.50
2017-06-14T22:50:25.289Z,18.50
2017-06-14T22:52:52.824Z,18.50
2017-06-14T22:55:20.541Z,18.50
2017-06-14T22:57:48.132Z,18.50
2017-06-14T23:00:16.465Z,18.40
2017-06-14T23:02:44.020Z,18.40
2017-06-14T23:05:11.605Z,18.30
2017-06-14T23:07:39.163Z,18.30
2017-06-14T23:10:06.690Z,18.20
2017-06-14T23:12:34.279Z,18.20
2017-06-14T23:15:01.876Z,18.20
2017-06-14T23:17:29.431Z,18.20
2017-06-14T23:19:57.779Z,18.30
2017-06-14T23:22:25.311Z,18.20
2017-06-14T23:24:52.840Z,18.30
2017-06-14T23:27:20.458Z,18.30
2017-06-14T23:29:48.006Z,18.20
2017-06-14T23:32:15.538Z,18.10
2017-06-14T23:34:43.132Z,18.10
2017-06-14T23:37:10.686Z,18.00
2017-06-14T23:39:38.209Z,18.00
2017-06-14T23:42:05.788Z,18.00
2017-06-14T23:44:33.340Z,17.90
2017-06-14T23:47:03.984Z,17.90
2017-06-14T23:49:31.583Z,17.90
2017-06-14T23:51:59.138Z,17.90
2017-06-14T23:54:26.680Z,17.90
2017-06-14T23:56:54.261Z,17.80
2017-06-14T23:59:21.825Z,17.80
